Time;durP1;ratioP1;P1;durP2;ratioP2;P2;SDS_P1;SDS_P2;PMS_P1;PMS_P2;Temp;Humidity;BMP_temperature;BMP_pressure;BME280_temperature;BME280_humidity;BME280_pressure;Samples;Min_cycle;Max_cycle;Signal;HPM_P1;HPM_P2
2023/06/30 00:01:16;;;;;;;14.80;8.20;;;;;;;;;;4955325;28;20031;-65
2023/06/30 00:03:45;;;;;;;14.32;8.02;;;;;;;;;;4954997;28;20035;-65
2023/06/30 00:06:10;;;;;;;16.98;8.32;;;;;;;;;;4961857;28;20042;-65
2023/06/30 00:08:35;;;;;;;14.43;8.35;;;;;;;;;;4953487;28;20049;-66
2023/06/30 00:11:01;;;;;;;20.55;9.50;;;;;;;;;;4951375;28;20047;-65
2023/06/30 00:13:26;;;;;;;15.73;9.70;;;;;;;;;;4952521;28;20023;-65
2023/06/30 00:15:51;;;;;;;22.33;10.55;;;;;;;;;;4949705;28;20103;-65
2023/06/30 00:18:16;;;;;;;17.90;10.35;;;;;;;;;;4940640;28;20066;-65
2023/06/30 00:20:42;;;;;;;19.80;11.15;;;;;;;;;;4949804;29;20019;-65
2023/06/30 00:23:10;;;;;;;26.73;11.70;;;;;;;;;;4944426;28;20155;-65
2023/06/30 00:25:35;;;;;;;19.95;11.25;;;;;;;;;;4947979;28;20027;-65
2023/06/30 00:28:01;;;;;;;19.73;11.10;;;;;;;;;;4951728;28;20395;-65
2023/06/30 00:30:26;;;;;;;19.63;11.35;;;;;;;;;;4942685;29;20170;-65
2023/06/30 00:32:51;;;;;;;26.63;11.40;;;;;;;;;;4950970;29;20024;-65
2023/06/30 00:35:16;;;;;;;22.73;11.80;;;;;;;;;;4950593;28;20506;-65
2023/06/30 00:37:42;;;;;;;27.98;12.18;;;;;;;;;;4951648;29;20016;-65
2023/06/30 00:40:07;;;;;;;24.85;11.70;;;;;;;;;;4953388;29;20135;-65
2023/06/30 00:42:33;;;;;;;26.75;12.38;;;;;;;;;;4951319;28;20023;-65
2023/06/30 00:44:59;;;;;;;23.40;11.63;;;;;;;;;;4952999;28;20032;-65
2023/06/30 00:47:25;;;;;;;21.75;11.90;;;;;;;;;;4946046;28;20024;-65
2023/06/30 00:49:50;;;;;;;19.67;11.45;;;;;;;;;;4949006;29;20640;-65
2023/06/30 00:52:16;;;;;;;21.88;11.75;;;;;;;;;;4945604;28;20024;-65
2023/06/30 00:54:41;;;;;;;20.38;11.07;;;;;;;;;;4942884;28;20101;-65
2023/06/30 00:57:07;;;;;;;19.30;10.77;;;;;;;;;;4943902;28;20016;-65
2023/06/30 00:59:32;;;;;;;20.38;10.75;;;;;;;;;;4945704;28;20023;-65
2023/06/30 01:02:05;;;;;;;21.08;11.10;;;;;;;;;;4964305;23;20007;-67
2023/06/30 01:04:49;;;;;;;23.70;10.57;;;;;;;;;;4932850;28;20072;-67
2023/06/30 01:07:23;;;;;;;20.52;9.93;;;;;;;;;;4933716;29;20035;-67
2023/06/30 01:09:52;;;;;;;21.33;9.90;;;;;;;;;;4937448;28;20055;-66
2023/06/30 01:12:18;;;;;;;19.98;9.93;;;;;;;;;;4935409;29;20034;-67
2023/06/30 01:14:45;;;;;;;23.65;9.73;;;;;;;;;;4934159;29;20024;-67
2023/06/30 01:17:10;;;;;;;21.25;10.20;;;;;;;;;;4935865;29;20044;-67
2023/06/30 01:19:38;;;;;;;21.23;9.88;;;;;;;;;;4936828;29;20039;-67
2023/06/30 01:22:08;;;;;;;20.42;9.77;;;;;;;;;;4934761;29;20038;-67
2023/06/30 01:24:34;;;;;;;23.63;9.68;;;;;;;;;;4934542;29;20019;-68
2023/06/30 01:27:00;;;;;;;24.50;10.07;;;;;;;;;;4935082;29;20495;-67
2023/06/30 01:29:25;;;;;;;25.92;9.82;;;;;;;;;;4932794;29;20106;-68
2023/06/30 01:31:50;;;;;;;18.63;10.05;;;;;;;;;;4933341;29;20019;-67
2023/06/30 01:34:16;;;;;;;20.20;10.40;;;;;;;;;;4934411;29;20039;-67
2023/06/30 01:36:41;;;;;;;22.10;9.50;;;;;;;;;;4934677;29;20019;-67
2023/06/30 01:39:07;;;;;;;30.98;10.23;;;;;;;;;;4932815;29;20106;-66
2023/06/30 01:41:32;;;;;;;26.30;9.57;;;;;;;;;;4934761;29;20384;-67
2023/06/30 01:43:58;;;;;;;24.05;11.07;;;;;;;;;;4931738;29;20032;-67
2023/06/30 01:46:23;;;;;;;19.45;10.70;;;;;;;;;;4934315;29;20039;-67
2023/06/30 01:48:49;;;;;;;23.73;10.45;;;;;;;;;;4934626;29;20032;-67
2023/06/30 01:51:15;;;;;;;20.70;10.02;;;;;;;;;;4931755;29;20094;-67
2023/06/30 01:53:40;;;;;;;22.13;10.95;;;;;;;;;;4933939;29;20396;-67
2023/06/30 01:56:05;;;;;;;23.73;11.07;;;;;;;;;;4932561;29;20051;-67
2023/06/30 01:58:31;;;;;;;23.38;10.43;;;;;;;;;;4932536;29;20027;-67
2023/06/30 02:00:56;;;;;;;21.38;11.05;;;;;;;;;;4933968;29;20059;-67
2023/06/30 02:03:22;;;;;;;26.33;10.88;;;;;;;;;;4932505;29;20036;-67
2023/06/30 02:05:47;;;;;;;21.77;10.63;;;;;;;;;;4936821;29;20496;-66
2023/06/30 02:08:12;;;;;;;24.27;12.00;;;;;;;;;;4934677;28;20520;-66
2023/06/30 02:10:38;;;;;;;26.83;11.07;;;;;;;;;;4933389;29;20027;-66
2023/06/30 02:13:03;;;;;;;25.20;11.75;;;;;;;;;;4936839;29;20403;-66
2023/06/30 02:15:28;;;;;;;24.10;11.52;;;;;;;;;;4932090;29;20142;-66
2023/06/30 02:17:54;;;;;;;26.40;11.68;;;;;;;;;;4930851;29;20032;-67
2023/06/30 02:20:19;;;;;;;24.15;11.32;;;;;;;;;;4933893;29;20020;-67
2023/06/30 02:22:44;;;;;;;30.65;12.00;;;;;;;;;;4940425;29;20016;-67
2023/06/30 02:25:10;;;;;;;23.58;11.68;;;;;;;;;;4932271;29;20083;-67
2023/06/30 02:27:35;;;;;;;28.13;12.13;;;;;;;;;;4931763;29;20511;-67
2023/06/30 02:30:04;;;;;;;26.95;12.35;;;;;;;;;;4931229;29;20034;-63
2023/06/30 02:32:30;;;;;;;35.47;12.75;;;;;;;;;;4935759;29;20023;-63
2023/06/30 02:34:55;;;;;;;27.83;12.43;;;;;;;;;;4932482;29;20030;-63
2023/06/30 02:37:20;;;;;;;27.30;13.20;;;;;;;;;;4932523;29;20023;-63
2023/06/30 02:39:46;;;;;;;26.92;12.73;;;;;;;;;;4933943;29;20491;-62
2023/06/30 02:42:11;;;;;;;31.35;13.52;;;;;;;;;;4933558;29;20022;-63
2023/06/30 02:44:36;;;;;;;34.85;14.48;;;;;;;;;;4931882;29;20028;-63
2023/06/30 02:47:02;;;;;;;30.25;13.63;;;;;;;;;;4931426;29;20114;-63
2023/06/30 02:49:27;;;;;;;34.50;14.43;;;;;;;;;;4932734;29;20044;-63
2023/06/30 02:51:53;;;;;;;35.78;14.18;;;;;;;;;;4933630;29;20086;-63
2023/06/30 02:54:18;;;;;;;35.03;14.77;;;;;;;;;;4933327;29;20050;-63
2023/06/30 02:56:43;;;;;;;32.40;14.43;;;;;;;;;;4932501;29;20028;-63
2023/06/30 02:59:08;;;;;;;33.97;14.68;;;;;;;;;;4932642;29;20106;-63
2023/06/30 03:01:34;;;;;;;41.28;15.15;;;;;;;;;;4931970;29;20034;-63
2023/06/30 03:04:00;;;;;;;37.40;15.32;;;;;;;;;;4932134;29;20052;-62
2023/06/30 03:06:25;;;;;;;35.53;15.32;;;;;;;;;;4933592;29;20027;-63
2023/06/30 03:08:50;;;;;;;31.65;14.55;;;;;;;;;;4931589;29;20130;-62
2023/06/30 03:11:16;;;;;;;35.35;15.90;;;;;;;;;;4933411;29;20556;-63
2023/06/30 03:13:41;;;;;;;36.75;15.32;;;;;;;;;;4933131;29;20032;-63
2023/06/30 03:16:07;;;;;;;37.83;15.32;;;;;;;;;;4933331;29;20038;-63
2023/06/30 03:18:32;;;;;;;34.38;15.57;;;;;;;;;;4931787;29;20540;-62
2023/06/30 03:20:57;;;;;;;44.42;16.55;;;;;;;;;;4932255;29;20102;-63
2023/06/30 03:23:22;;;;;;;32.38;15.13;;;;;;;;;;4932867;29;20024;-63
2023/06/30 03:25:48;;;;;;;40.67;16.70;;;;;;;;;;4933468;29;20103;-62
2023/06/30 03:28:13;;;;;;;37.45;14.85;;;;;;;;;;4932214;29;20040;-63
2023/06/30 03:30:38;;;;;;;34.70;15.63;;;;;;;;;;4932307;29;20031;-63
2023/06/30 03:33:04;;;;;;;38.83;15.95;;;;;;;;;;4933637;29;20044;-63
2023/06/30 03:35:29;;;;;;;39.35;16.70;;;;;;;;;;4932420;29;20520;-62
2023/06/30 03:37:54;;;;;;;33.83;16.33;;;;;;;;;;4933637;29;20098;-62
2023/06/30 03:40:20;;;;;;;31.65;15.77;;;;;;;;;;4934397;29;20027;-62
2023/06/30 03:42:45;;;;;;;37.38;16.58;;;;;;;;;;4936549;29;20263;-62
2023/06/30 03:45:10;;;;;;;36.63;16.13;;;;;;;;;;4935606;29;20035;-62
2023/06/30 03:47:36;;;;;;;35.88;16.40;;;;;;;;;;4936147;29;20034;-62
2023/06/30 03:50:01;;;;;;;37.47;16.50;;;;;;;;;;4935717;29;20055;-62
2023/06/30 03:52:26;;;;;;;34.75;15.52;;;;;;;;;;4934481;29;20035;-62
2023/06/30 03:54:52;;;;;;;33.53;15.13;;;;;;;;;;4936026;29;20027;-62
2023/06/30 03:57:17;;;;;;;37.42;15.20;;;;;;;;;;4937318;29;20460;-62
2023/06/30 03:59:42;;;;;;;38.53;17.40;;;;;;;;;;4934518;29;20407;-62
2023/06/30 04:02:07;;;;;;;35.40;16.58;;;;;;;;;;4935078;29;20052;-62
2023/06/30 04:04:33;;;;;;;38.30;16.30;;;;;;;;;;4935312;29;20063;-62
2023/06/30 04:06:58;;;;;;;35.95;15.75;;;;;;;;;;4936309;29;20023;-62
2023/06/30 04:09:23;;;;;;;32.88;15.20;;;;;;;;;;4937839;29;20032;-62
2023/06/30 04:11:49;;;;;;;33.30;14.00;;;;;;;;;;4940126;29;20106;-62
2023/06/30 04:14:14;;;;;;;27.27;14.27;;;;;;;;;;4938497;29;20035;-62
2023/06/30 04:16:40;;;;;;;34.03;14.77;;;;;;;;;;4937579;29;20380;-61
2023/06/30 04:19:05;;;;;;;34.13;13.55;;;;;;;;;;4937115;29;20500;-62
2023/06/30 04:21:30;;;;;;;33.17;13.25;;;;;;;;;;4936975;29;20095;-61
2023/06/30 04:23:55;;;;;;;25.85;13.52;;;;;;;;;;4933599;29;20094;-62
2023/06/30 04:26:21;;;;;;;29.83;12.55;;;;;;;;;;4936809;29;20047;-62
2023/06/30 04:28:46;;;;;;;29.45;12.60;;;;;;;;;;4937011;29;20087;-61
2023/06/30 04:31:11;;;;;;;27.20;13.23;;;;;;;;;;4937806;29;20097;-62
2023/06/30 04:33:37;;;;;;;29.10;12.77;;;;;;;;;;4938332;29;20042;-62
2023/06/30 04:36:03;;;;;;;25.52;13.15;;;;;;;;;;4936138;29;20031;-62
2023/06/30 04:38:28;;;;;;;29.27;10.95;;;;;;;;;;4936301;29;20020;-62
2023/06/30 04:40:54;;;;;;;24.88;10.27;;;;;;;;;;4936353;29;20388;-62
2023/06/30 04:43:19;;;;;;;25.05;9.68;;;;;;;;;;4936910;28;20039;-62
2023/06/30 04:45:45;;;;;;;18.08;7.93;;;;;;;;;;4936363;29;20035;-62
2023/06/30 04:48:10;;;;;;;23.58;9.27;;;;;;;;;;4935646;29;20031;-62
2023/06/30 04:50:36;;;;;;;19.45;7.85;;;;;;;;;;4936259;29;20041;-62
2023/06/30 04:53:01;;;;;;;23.63;8.60;;;;;;;;;;4936422;29;20110;-62
2023/06/30 04:55:26;;;;;;;16.92;8.40;;;;;;;;;;4935243;29;20040;-62
2023/06/30 04:57:53;;;;;;;18.13;7.28;;;;;;;;;;4936048;29;20032;-62
2023/06/30 05:00:19;;;;;;;24.95;6.70;;;;;;;;;;4933844;29;20030;-62
2023/06/30 05:02:44;;;;;;;17.67;6.20;;;;;;;;;;4936060;28;20039;-62
2023/06/30 05:05:10;;;;;;;19.20;6.78;;;;;;;;;;4933290;29;20440;-62
2023/06/30 05:07:35;;;;;;;17.27;6.47;;;;;;;;;;4938157;29;20040;-62
2023/06/30 05:10:00;;;;;;;22.40;6.55;;;;;;;;;;4934018;29;20388;-62
2023/06/30 05:12:25;;;;;;;18.27;5.35;;;;;;;;;;4935144;29;20039;-62
2023/06/30 05:14:51;;;;;;;16.13;5.88;;;;;;;;;;4933285;29;20193;-62
2023/06/30 05:17:17;;;;;;;16.50;5.80;;;;;;;;;;4933154;29;20036;-61
2023/06/30 05:19:42;;;;;;;19.17;5.40;;;;;;;;;;4933584;29;20050;-62
2023/06/30 05:22:08;;;;;;;15.35;5.38;;;;;;;;;;4933389;29;20028;-62
2023/06/30 05:24:33;;;;;;;16.98;5.47;;;;;;;;;;4932167;29;20404;-61
2023/06/30 05:26:58;;;;;;;16.05;5.30;;;;;;;;;;4931984;29;20032;-61
2023/06/30 05:29:24;;;;;;;13.57;5.60;;;;;;;;;;4933661;29;20023;-62
2023/06/30 05:31:49;;;;;;;13.80;5.63;;;;;;;;;;4935007;28;20140;-61
2023/06/30 05:34:15;;;;;;;33.15;6.55;;;;;;;;;;4934480;29;20055;-61
2023/06/30 05:36:42;;;;;;;11.45;5.10;;;;;;;;;;4935561;29;20083;-61
2023/06/30 05:39:07;;;;;;;14.13;5.00;;;;;;;;;;4931663;29;20036;-61
2023/06/30 05:41:33;;;;;;;13.52;4.18;;;;;;;;;;4935139;29;20023;-61
2023/06/30 05:43:58;;;;;;;15.05;5.15;;;;;;;;;;4934142;29;20027;-61
2023/06/30 05:46:23;;;;;;;14.30;4.65;;;;;;;;;;4933838;29;20028;-61
2023/06/30 05:48:48;;;;;;;11.60;4.35;;;;;;;;;;4934237;29;20106;-62
2023/06/30 05:51:14;;;;;;;12.07;4.03;;;;;;;;;;4935074;29;20033;-62
2023/06/30 05:53:39;;;;;;;10.68;4.53;;;;;;;;;;4934391;29;20035;-62
2023/06/30 05:56:04;;;;;;;12.30;4.35;;;;;;;;;;4931450;29;20036;-62
2023/06/30 05:58:30;;;;;;;16.42;4.38;;;;;;;;;;4933774;29;20507;-61
2023/06/30 06:00:55;;;;;;;11.98;3.67;;;;;;;;;;4934702;29;20038;-61
2023/06/30 06:03:21;;;;;;;12.85;3.90;;;;;;;;;;4933449;29;20575;-61
2023/06/30 06:05:46;;;;;;;12.52;3.60;;;;;;;;;;4935146;29;20146;-60
2023/06/30 06:08:11;;;;;;;10.95;3.03;;;;;;;;;;4935181;29;20538;-61
2023/06/30 06:10:36;;;;;;;10.40;3.28;;;;;;;;;;4935681;29;20035;-60
2023/06/30 06:13:02;;;;;;;11.35;3.00;;;;;;;;;;4937453;29;20122;-60
2023/06/30 06:15:27;;;;;;;10.82;3.05;;;;;;;;;;4953965;29;20035;-60
2023/06/30 06:17:52;;;;;;;10.88;2.80;;;;;;;;;;4954422;28;20420;-60
2023/06/30 06:20:18;;;;;;;10.30;3.08;;;;;;;;;;4949942;28;20036;-60
2023/06/30 06:22:43;;;;;;;9.60;3.20;;;;;;;;;;4931088;29;20027;-60
2023/06/30 06:25:09;;;;;;;10.50;2.92;;;;;;;;;;4933594;29;20392;-60
2023/06/30 06:27:35;;;;;;;11.65;3.20;;;;;;;;;;4949201;29;20483;-60
2023/06/30 06:30:00;;;;;;;17.17;5.07;;;;;;;;;;4938735;28;20028;-59
2023/06/30 06:32:26;;;;;;;16.80;4.22;;;;;;;;;;4933984;29;20042;-60
2023/06/30 06:34:51;;;;;;;12.35;3.88;;;;;;;;;;4929426;29;20075;-60
2023/06/30 06:37:16;;;;;;;11.63;3.25;;;;;;;;;;4931991;29;20067;-60
2023/06/30 06:39:42;;;;;;;8.73;3.00;;;;;;;;;;4927264;29;20027;-59
2023/06/30 06:42:07;;;;;;;12.90;3.63;;;;;;;;;;4930939;29;20032;-60
2023/06/30 06:44:32;;;;;;;12.70;2.78;;;;;;;;;;4929624;29;20020;-60
2023/06/30 06:47:16;;;;;;;8.88;2.90;;;;;;;;;;4934346;29;20028;-60
2023/06/30 06:49:42;;;;;;;9.57;2.72;;;;;;;;;;4936068;29;20476;-60
2023/06/30 06:52:07;;;;;;;12.55;3.22;;;;;;;;;;4935772;29;20083;-61
2023/06/30 06:54:32;;;;;;;9.60;2.78;;;;;;;;;;4936103;29;20027;-61
2023/06/30 06:56:57;;;;;;;9.25;2.40;;;;;;;;;;4934116;29;20526;-61
2023/06/30 06:59:23;;;;;;;10.73;2.60;;;;;;;;;;4935184;29;20030;-61
2023/06/30 07:01:48;;;;;;;10.25;2.65;;;;;;;;;;4932745;29;20476;-61
2023/06/30 07:04:13;;;;;;;7.70;2.63;;;;;;;;;;4934617;29;20065;-62
2023/06/30 07:06:39;;;;;;;10.32;2.60;;;;;;;;;;4935685;29;20028;-63
2023/06/30 07:09:04;;;;;;;9.35;2.97;;;;;;;;;;4934728;29;20102;-62
2023/06/30 07:11:29;;;;;;;10.13;3.00;;;;;;;;;;4935737;29;20038;-63
2023/06/30 07:13:55;;;;;;;9.25;3.00;;;;;;;;;;4935482;29;20116;-63
2023/06/30 07:16:21;;;;;;;11.23;3.10;;;;;;;;;;4939572;29;20035;-63
2023/06/30 07:18:46;;;;;;;14.35;3.58;;;;;;;;;;4939037;29;20496;-63
2023/06/30 07:21:12;;;;;;;10.75;3.95;;;;;;;;;;4939063;29;20056;-63
2023/06/30 07:23:37;;;;;;;13.98;3.13;;;;;;;;;;4937731;29;20090;-62
2023/06/30 07:26:02;;;;;;;13.98;3.10;;;;;;;;;;4939537;29;20027;-61
2023/06/30 07:28:28;;;;;;;9.50;2.90;;;;;;;;;;4938238;29;20485;-61
2023/06/30 07:30:53;;;;;;;8.00;2.50;;;;;;;;;;4939215;29;20031;-61
2023/06/30 07:33:18;;;;;;;10.15;2.60;;;;;;;;;;4938451;29;20032;-61
2023/06/30 07:35:44;;;;;;;6.28;2.00;;;;;;;;;;4939920;29;20027;-60
2023/06/30 07:38:09;;;;;;;8.63;2.33;;;;;;;;;;4939275;29;20048;-60
2023/06/30 07:40:34;;;;;;;7.03;1.92;;;;;;;;;;4938937;29;20576;-61
2023/06/30 07:43:00;;;;;;;9.40;2.30;;;;;;;;;;4938109;29;20124;-61
2023/06/30 07:45:25;;;;;;;10.05;1.80;;;;;;;;;;4939201;29;20031;-60
2023/06/30 07:47:50;;;;;;;9.15;1.90;;;;;;;;;;4938792;29;20495;-60
2023/06/30 07:50:16;;;;;;;6.65;1.77;;;;;;;;;;4938748;29;20083;-60
2023/06/30 07:52:48;;;;;;;10.70;2.35;;;;;;;;;;4938437;29;20058;-60
2023/06/30 07:55:16;;;;;;;7.13;1.60;;;;;;;;;;4938638;29;20032;-60
2023/06/30 07:57:41;;;;;;;7.85;1.60;;;;;;;;;;4937792;29;20079;-60
2023/06/30 08:00:07;;;;;;;8.20;1.90;;;;;;;;;;4938628;29;20020;-60
2023/06/30 08:02:32;;;;;;;5.35;1.40;;;;;;;;;;4938516;29;20047;-60
2023/06/30 08:04:57;;;;;;;7.38;1.40;;;;;;;;;;4954881;28;20373;-60
2023/06/30 08:07:23;;;;;;;8.02;1.65;;;;;;;;;;4939667;28;20031;-61
2023/06/30 08:09:48;;;;;;;5.85;1.35;;;;;;;;;;4953025;29;20031;-60
2023/06/30 08:12:13;;;;;;;10.43;1.50;;;;;;;;;;4953533;28;20020;-61
2023/06/30 08:14:39;;;;;;;5.93;1.33;;;;;;;;;;4957903;28;20388;-62
2023/06/30 08:17:04;;;;;;;9.20;1.70;;;;;;;;;;4956265;28;20027;-62
2023/06/30 08:19:29;;;;;;;7.63;1.42;;;;;;;;;;4957585;28;20055;-62
2023/06/30 08:21:55;;;;;;;5.68;1.50;;;;;;;;;;4948544;29;20553;-61
2023/06/30 08:24:20;;;;;;;6.57;1.38;;;;;;;;;;4938196;29;20024;-61
2023/06/30 08:26:45;;;;;;;4.97;1.10;;;;;;;;;;4937508;29;20054;-60
2023/06/30 08:29:11;;;;;;;5.40;1.27;;;;;;;;;;4937468;29;20023;-60
2023/06/30 08:31:36;;;;;;;9.32;1.60;;;;;;;;;;4938408;29;20087;-60
2023/06/30 08:34:02;;;;;;;7.07;1.10;;;;;;;;;;4937399;29;20399;-60
2023/06/30 08:36:27;;;;;;;3.42;1.13;;;;;;;;;;4937875;29;20031;-60
2023/06/30 08:38:52;;;;;;;4.78;1.25;;;;;;;;;;4938293;29;20030;-60
2023/06/30 08:41:18;;;;;;;2.70;0.77;;;;;;;;;;4937088;29;20043;-60
2023/06/30 08:43:44;;;;;;;5.47;1.05;;;;;;;;;;4937651;29;20110;-60
2023/06/30 08:46:10;;;;;;;7.13;1.40;;;;;;;;;;4938153;29;20376;-61
2023/06/30 08:48:36;;;;;;;6.70;1.10;;;;;;;;;;4937962;29;20020;-62
2023/06/30 08:51:02;;;;;;;4.18;1.00;;;;;;;;;;4937830;29;20024;-62
2023/06/30 08:53:28;;;;;;;3.25;0.90;;;;;;;;;;4936934;29;20024;-63
2023/06/30 08:55:56;;;;;;;6.32;1.02;;;;;;;;;;4937634;29;20031;-63
2023/06/30 08:58:21;;;;;;;4.60;1.00;;;;;;;;;;4936891;29;20167;-61
2023/06/30 09:00:47;;;;;;;4.97;1.48;;;;;;;;;;4937564;29;20063;-60
2023/06/30 09:03:12;;;;;;;9.23;1.30;;;;;;;;;;4935263;29;20416;-61
2023/06/30 09:05:39;;;;;;;5.07;1.30;;;;;;;;;;4922640;29;20102;-62
2023/06/30 09:08:10;;;;;;;9.52;1.40;;;;;;;;;;4918466;29;20028;-63
2023/06/30 09:10:37;;;;;;;7.18;1.60;;;;;;;;;;4918386;29;20035;-62
2023/06/30 09:13:03;;;;;;;5.68;1.27;;;;;;;;;;4928920;29;20031;-61
2023/06/30 09:15:29;;;;;;;5.15;1.00;;;;;;;;;;4937139;29;20031;-60
2023/06/30 09:17:55;;;;;;;4.95;1.15;;;;;;;;;;4937111;29;20023;-60
2023/06/30 09:20:20;;;;;;;5.80;1.00;;;;;;;;;;4935017;29;20020;-60
2023/06/30 09:22:46;;;;;;;4.18;0.88;;;;;;;;;;4932708;29;20111;-60
2023/06/30 09:25:46;;;;;;;4.45;0.90;;;;;;;;;;4937400;29;20019;-61
2023/06/30 09:28:13;;;;;;;3.72;1.00;;;;;;;;;;4934082;29;20023;-61
2023/06/30 09:30:41;;;;;;;5.05;1.13;;;;;;;;;;4934871;29;20095;-62
2023/06/30 09:33:06;;;;;;;3.92;0.90;;;;;;;;;;4934995;29;20043;-62
2023/06/30 09:35:42;;;;;;;4.38;1.10;;;;;;;;;;4934761;29;20044;-62
2023/06/30 09:38:11;;;;;;;4.13;1.00;;;;;;;;;;4933915;29;20020;-61
2023/06/30 09:40:36;;;;;;;3.75;1.00;;;;;;;;;;4934472;29;20039;-60
2023/06/30 09:43:01;;;;;;;4.65;1.10;;;;;;;;;;4933702;29;20496;-60
2023/06/30 09:45:26;;;;;;;5.85;1.00;;;;;;;;;;4934696;29;20035;-60
2023/06/30 09:47:55;;;;;;;5.22;0.90;;;;;;;;;;4933801;29;20365;-60
2023/06/30 09:50:21;;;;;;;5.50;0.90;;;;;;;;;;4934541;29;20038;-60
2023/06/30 09:52:46;;;;;;;4.45;1.30;;;;;;;;;;4934560;29;20103;-60
2023/06/30 09:55:13;;;;;;;2.40;0.80;;;;;;;;;;4934113;29;20027;-60
2023/06/30 09:57:43;;;;;;;3.15;0.80;;;;;;;;;;4932649;29;20472;-60
2023/06/30 10:00:19;;;;;;;1.67;0.57;;;;;;;;;;4929335;29;20154;-60
2023/06/30 10:02:44;;;;;;;4.32;0.93;;;;;;;;;;4935574;29;20043;-60
2023/06/30 10:05:10;;;;;;;3.58;1.02;;;;;;;;;;4934334;29;20119;-60
2023/06/30 10:07:36;;;;;;;4.70;0.73;;;;;;;;;;4936677;29;20039;-61
2023/06/30 10:10:01;;;;;;;3.83;0.82;;;;;;;;;;4948411;29;20046;-61
2023/06/30 10:12:27;;;;;;;2.63;0.70;;;;;;;;;;4949328;28;20020;-62
2023/06/30 10:14:53;;;;;;;4.68;0.90;;;;;;;;;;4936739;29;20047;-60
2023/06/30 10:17:19;;;;;;;5.88;0.90;;;;;;;;;;4942926;29;20023;-61
2023/06/30 10:19:44;;;;;;;3.90;0.70;;;;;;;;;;4940658;28;20059;-61
2023/06/30 10:22:10;;;;;;;5.10;0.88;;;;;;;;;;4939122;28;20124;-60
2023/06/30 10:24:37;;;;;;;3.38;0.73;;;;;;;;;;4935763;29;20024;-60
2023/06/30 10:27:05;;;;;;;3.03;0.82;;;;;;;;;;4934253;29;20031;-60
2023/06/30 10:29:30;;;;;;;2.88;0.90;;;;;;;;;;4936018;29;20028;-61
2023/06/30 10:31:56;;;;;;;1.88;0.60;;;;;;;;;;4936058;29;20114;-61
2023/06/30 10:34:21;;;;;;;2.67;0.80;;;;;;;;;;4936329;29;20027;-61
2023/06/30 10:36:47;;;;;;;3.72;0.70;;;;;;;;;;4934973;29;20484;-61
2023/06/30 10:39:13;;;;;;;3.40;0.90;;;;;;;;;;4935929;29;20016;-61
2023/06/30 10:41:46;;;;;;;5.00;1.27;;;;;;;;;;4933917;29;20031;-61
2023/06/30 10:44:11;;;;;;;3.60;0.60;;;;;;;;;;4934018;29;20048;-61
2023/06/30 10:46:52;;;;;;;3.00;0.90;;;;;;;;;;4933576;29;20059;-61
2023/06/30 10:49:33;;;;;;;2.25;0.70;;;;;;;;;;4935306;29;20052;-61
2023/06/30 10:52:00;;;;;;;2.47;0.70;;;;;;;;;;4936108;29;20024;-61
2023/06/30 10:54:26;;;;;;;1.70;0.70;;;;;;;;;;4935142;29;20028;-61
2023/06/30 10:56:52;;;;;;;4.90;0.70;;;;;;;;;;4934771;29;20032;-61
2023/06/30 10:59:20;;;;;;;2.85;0.60;;;;;;;;;;4935694;29;20020;-60
2023/06/30 11:02:03;;;;;;;4.03;0.70;;;;;;;;;;4934453;29;20424;-61
2023/06/30 11:04:38;;;;;;;2.50;0.75;;;;;;;;;;4935036;29;20028;-61
2023/06/30 11:07:05;;;;;;;1.92;0.60;;;;;;;;;;4935640;29;20030;-63
2023/06/30 11:09:57;;;;;;;3.33;0.82;;;;;;;;;;4935855;29;20564;-62
2023/06/30 11:12:23;;;;;;;4.13;1.05;;;;;;;;;;4934227;29;20042;-62
2023/06/30 11:15:07;;;;;;;5.03;0.90;;;;;;;;;;4934665;29;20179;-63
2023/06/30 11:18:10;;;;;;;2.90;0.80;;;;;;;;;;4935529;29;20028;-62
2023/06/30 11:20:36;;;;;;;4.10;0.90;;;;;;;;;;4933564;29;20028;-62
2023/06/30 11:23:05;;;;;;;2.47;0.80;;;;;;;;;;4933521;29;20024;-62
2023/06/30 11:25:31;;;;;;;4.25;0.73;;;;;;;;;;4931704;29;20050;-62
2023/06/30 11:27:57;;;;;;;2.75;0.70;;;;;;;;;;4931957;29;20028;-62
2023/06/30 11:30:23;;;;;;;3.10;0.80;;;;;;;;;;4932747;29;20023;-62
2023/06/30 11:32:53;;;;;;;4.18;0.82;;;;;;;;;;4933113;29;20028;-62
2023/06/30 11:35:18;;;;;;;3.53;0.77;;;;;;;;;;4933150;29;20028;-62
2023/06/30 11:37:50;;;;;;;3.83;0.70;;;;;;;;;;4932542;29;20420;-62
2023/06/30 11:40:15;;;;;;;2.40;0.75;;;;;;;;;;4932485;29;20055;-62
2023/06/30 11:42:41;;;;;;;2.05;0.65;;;;;;;;;;4933277;29;20063;-62
2023/06/30 11:45:07;;;;;;;2.45;0.63;;;;;;;;;;4933115;29;20440;-63
2023/06/30 11:47:35;;;;;;;2.78;0.90;;;;;;;;;;4933227;29;20047;-63
2023/06/30 11:50:10;;;;;;;3.22;0.55;;;;;;;;;;4932496;29;20099;-64
2023/06/30 11:52:36;;;;;;;3.53;0.90;;;;;;;;;;4951917;29;20107;-63
2023/06/30 11:55:08;;;;;;;2.35;0.70;;;;;;;;;;4943494;28;20107;-63
2023/06/30 11:57:34;;;;;;;2.25;0.60;;;;;;;;;;4947483;29;20079;-63
2023/06/30 12:00:06;;;;;;;3.03;0.80;;;;;;;;;;4943476;28;20027;-63
2023/06/30 12:02:32;;;;;;;3.00;0.90;;;;;;;;;;4945833;28;20035;-63
2023/06/30 12:04:57;;;;;;;3.90;1.23;;;;;;;;;;4958053;28;20077;-63
2023/06/30 12:07:22;;;;;;;2.38;0.80;;;;;;;;;;4954829;28;20089;-63
2023/06/30 12:09:58;;;;;;;3.30;0.70;;;;;;;;;;4937867;29;20091;-63
2023/06/30 12:12:27;;;;;;;2.88;0.80;;;;;;;;;;4938621;29;20027;-64
2023/06/30 12:14:53;;;;;;;3.97;0.80;;;;;;;;;;4949507;29;20024;-63
2023/06/30 12:17:18;;;;;;;4.20;0.90;;;;;;;;;;4934071;29;20369;-63
2023/06/30 12:19:44;;;;;;;3.40;0.90;;;;;;;;;;4933691;29;20023;-64
2023/06/30 12:22:11;;;;;;;1.95;0.68;;;;;;;;;;4936233;29;20028;-64
2023/06/30 12:24:38;;;;;;;3.42;0.80;;;;;;;;;;4935215;29;20413;-64
2023/06/30 12:27:05;;;;;;;2.65;0.65;;;;;;;;;;4932897;29;20384;-64
2023/06/30 12:29:32;;;;;;;1.40;0.60;;;;;;;;;;4930802;29;20103;-65
2023/06/30 12:31:58;;;;;;;2.85;0.90;;;;;;;;;;4929999;29;20038;-65
2023/06/30 12:34:33;;;;;;;2.00;0.60;;;;;;;;;;4929857;29;20669;-64
2023/06/30 12:36:58;;;;;;;2.67;1.00;;;;;;;;;;4927947;29;20532;-64
2023/06/30 12:39:23;;;;;;;6.57;0.93;;;;;;;;;;4932774;29;20094;-64
2023/06/30 12:41:48;;;;;;;3.42;1.05;;;;;;;;;;4928094;29;20167;-65
2023/06/30 12:44:14;;;;;;;3.88;1.02;;;;;;;;;;4931823;29;20129;-64
2023/06/30 12:46:39;;;;;;;3.00;0.90;;;;;;;;;;4931696;29;20357;-65
2023/06/30 12:49:05;;;;;;;3.95;1.00;;;;;;;;;;4929955;29;20125;-64
2023/06/30 12:51:30;;;;;;;8.50;2.40;;;;;;;;;;4923447;29;20020;-65
2023/06/30 12:53:56;;;;;;;4.70;0.90;;;;;;;;;;4936477;29;20476;-65
2023/06/30 12:56:21;;;;;;;4.40;1.00;;;;;;;;;;4934993;29;20020;-65
2023/06/30 12:58:47;;;;;;;3.45;1.00;;;;;;;;;;4935323;29;20047;-65
2023/06/30 13:01:12;;;;;;;4.53;0.93;;;;;;;;;;4928295;29;20015;-65
2023/06/30 13:03:37;;;;;;;2.90;1.10;;;;;;;;;;4922511;29;20154;-65
2023/06/30 13:06:03;;;;;;;6.22;1.20;;;;;;;;;;4941623;29;20039;-65
2023/06/30 13:08:28;;;;;;;4.07;1.20;;;;;;;;;;4930792;29;20031;-65
2023/06/30 13:10:54;;;;;;;3.50;1.05;;;;;;;;;;4930931;28;20035;-66
2023/06/30 13:13:19;;;;;;;2.55;0.70;;;;;;;;;;4925098;29;20055;-66
2023/06/30 13:15:44;;;;;;;4.35;0.90;;;;;;;;;;4932355;29;20074;-66
2023/06/30 13:18:10;;;;;;;15.57;1.85;;;;;;;;;;4936758;29;20055;-66
2023/06/30 13:20:35;;;;;;;6.13;0.80;;;;;;;;;;4934276;29;20019;-66
2023/06/30 13:23:00;;;;;;;6.70;1.70;;;;;;;;;;4928605;29;20034;-67
2023/06/30 13:25:26;;;;;;;2.17;0.75;;;;;;;;;;4926655;29;20027;-67
2023/06/30 13:27:51;;;;;;;4.07;0.98;;;;;;;;;;4915704;28;20036;-67
2023/06/30 13:30:16;;;;;;;3.75;1.00;;;;;;;;;;4926682;29;20099;-67
2023/06/30 13:32:41;;;;;;;3.05;0.80;;;;;;;;;;4929315;29;20023;-66
2023/06/30 13:35:07;;;;;;;3.05;0.98;;;;;;;;;;4929996;29;20024;-67
2023/06/30 13:37:32;;;;;;;4.88;0.95;;;;;;;;;;4929440;29;20042;-67
2023/06/30 13:39:58;;;;;;;3.97;1.00;;;;;;;;;;4936265;29;20031;-66
2023/06/30 13:42:24;;;;;;;4.68;0.90;;;;;;;;;;4932180;29;20043;-65
2023/06/30 13:44:49;;;;;;;4.75;1.10;;;;;;;;;;4934204;29;20066;-65
2023/06/30 13:47:14;;;;;;;2.63;0.90;;;;;;;;;;4936140;29;20420;-65
2023/06/30 13:49:40;;;;;;;3.75;0.90;;;;;;;;;;4934530;29;20028;-65
2023/06/30 13:52:05;;;;;;;6.95;1.05;;;;;;;;;;4928496;29;20139;-67
2023/06/30 13:54:31;;;;;;;2.55;0.93;;;;;;;;;;4920026;29;20090;-69
2023/06/30 13:56:56;;;;;;;4.60;0.90;;;;;;;;;;4934363;29;20027;-68
2023/06/30 13:59:21;;;;;;;2.92;0.90;;;;;;;;;;4936221;29;20026;-68
2023/06/30 14:01:47;;;;;;;6.53;1.42;;;;;;;;;;4925427;29;20031;-66
2023/06/30 14:04:12;;;;;;;3.45;0.80;;;;;;;;;;4934550;29;20126;-65
2023/06/30 14:06:37;;;;;;;3.88;1.00;;;;;;;;;;4927705;29;20027;-66
2023/06/30 14:09:03;;;;;;;2.90;0.90;;;;;;;;;;4929950;29;20074;-66
2023/06/30 14:11:28;;;;;;;3.50;1.10;;;;;;;;;;4932084;29;20388;-67
2023/06/30 14:13:54;;;;;;;8.02;0.88;;;;;;;;;;4923701;29;20043;-68
2023/06/30 14:16:19;;;;;;;3.67;0.90;;;;;;;;;;4924833;29;20154;-69
2023/06/30 14:18:44;;;;;;;3.17;0.90;;;;;;;;;;4927086;29;20107;-69
2023/06/30 14:21:10;;;;;;;8.43;1.30;;;;;;;;;;4930512;28;20118;-68
2023/06/30 14:23:35;;;;;;;3.17;1.00;;;;;;;;;;4924323;29;20023;-70
2023/06/30 14:26:00;;;;;;;2.03;0.70;;;;;;;;;;4928764;29;20366;-69
2023/06/30 14:28:25;;;;;;;4.60;1.20;;;;;;;;;;4921730;29;20035;-68